CheckWX is a tool to help pilots better visualize weather data.  It is not intended as a substitute for an official pre-flight weather briefing.

14:35:45 UTC

KSYR TAF
Syracuse Hancock International Airport
Syracuse, New York, USA
KSYR 151127Z 1512/1612 VRB04KT P6SM BKN250 FM151400 27006KT P6SM BKN045 FM160800 VRB03KT P6SM BKN025

Sep-15@
12:00 UTC

Sep-15 @ 12:00 UTC

Sep-15@
14:00 UTC

Sep-15 @ 14:00 UTC

KSYR 151127Z 1512/1612 VRB04KT P6SM BKN250

Expired

Wind
  • Variable at 4 KTS
Cloud Levels
  • Broken at 25,000' AGL

Sep-15@
14:00 UTC

Sep-15 @ 14:00 UTC

Sep-16@
08:00 UTC

Sep-16 @ 08:00 UTC

FM151400 27006KT P6SM BKN045

From

From Standard forecast or significant change

Wind
  • 270° at 6 KTS
Cloud Levels
  • Broken at 4,500' AGL

Sep-16@
08:00 UTC

Sep-16 @ 08:00 UTC

Sep-16@
12:00 UTC

Sep-16 @ 12:00 UTC

FM160800 VRB03KT P6SM BKN025

From

From Standard forecast or significant change

Wind
  • Variable at 3 KTS
Cloud Levels
  • Broken at 2,500' AGL